createdAt,value
2023-02-13T00:00:24.946Z,42.13
2023-02-13T00:01:27.570Z,45.35
2023-02-13T00:02:29.787Z,44.28
2023-02-13T00:03:32.042Z,42.08
2023-02-13T00:04:34.790Z,46.05
2023-02-13T00:05:36.966Z,44.63
2023-02-13T00:06:39.189Z,45.00
2023-02-13T00:07:41.527Z,41.60
2023-02-13T00:08:43.732Z,47.72
2023-02-13T00:09:45.904Z,45.33
2023-02-13T00:10:48.713Z,45.03
2023-02-13T00:11:50.984Z,43.25
2023-02-13T00:12:53.607Z,43.92
2023-02-13T00:13:55.938Z,46.55
2023-02-13T00:14:59.083Z,48.58
2023-02-13T00:16:03.614Z,43.88
2023-02-13T00:17:07.200Z,47.42
2023-02-13T00:18:09.525Z,47.58
2023-02-13T00:19:11.775Z,45.08
2023-02-13T00:20:14.274Z,46.08
2023-02-13T00:21:16.446Z,48.10
2023-02-13T00:22:18.702Z,45.03
2023-02-13T00:23:21.064Z,47.50
2023-02-13T00:24:23.342Z,49.60
2023-02-13T00:25:25.530Z,47.60
2023-02-13T00:26:27.771Z,49.25
2023-02-13T00:27:29.997Z,49.45
2023-02-13T00:28:32.271Z,49.83
2023-02-13T00:29:37.582Z,52.50
2023-02-13T00:30:39.944Z,54.25
2023-02-13T00:31:42.354Z,56.30
2023-02-13T00:32:44.678Z,49.40
2023-02-13T00:33:47.351Z,50.75
2023-02-13T00:34:49.613Z,53.15
2023-02-13T00:35:51.830Z,50.30
2023-02-13T00:36:54.061Z,53.60
2023-02-13T00:37:56.520Z,49.72
2023-02-13T00:38:59.943Z,50.95
2023-02-13T00:40:02.457Z,51.40
2023-02-13T00:41:05.421Z,52.65
2023-02-13T00:42:07.692Z,51.13
2023-02-13T00:43:09.850Z,52.28
2023-02-13T00:44:12.218Z,54.60
2023-02-13T00:45:14.456Z,51.97
2023-02-13T00:46:17.525Z,52.70
2023-02-13T00:47:20.525Z,49.95
2023-02-13T00:48:22.683Z,49.15
2023-02-13T00:49:24.980Z,50.70
2023-02-13T00:50:27.184Z,53.85
2023-02-13T00:51:29.402Z,56.40
2023-02-13T00:52:33.781Z,55.08
2023-02-13T00:53:36.884Z,54.22
2023-02-13T00:54:39.072Z,55.53
2023-02-13T00:55:42.676Z,53.75
2023-02-13T00:56:45.632Z,55.10
2023-02-13T00:57:48.653Z,57.78
2023-02-13T00:58:50.880Z,48.65
2023-02-13T00:59:53.197Z,56.10
2023-02-13T01:00:55.965Z,53.38
2023-02-13T01:01:58.446Z,47.45
2023-02-13T01:03:00.718Z,53.70
2023-02-13T01:04:03.016Z,56.90
2023-02-13T01:05:05.690Z,55.97
2023-02-13T01:06:08.043Z,54.47
2023-02-13T01:07:10.259Z,53.03
2023-02-13T01:08:13.355Z,54.08
2023-02-13T01:09:15.635Z,48.58
2023-02-13T01:10:17.978Z,52.17
2023-02-13T01:11:20.306Z,57.25
2023-02-13T01:12:22.490Z,51.33
2023-02-13T01:13:25.148Z,57.55
2023-02-13T01:14:29.290Z,51.78
2023-02-13T01:15:32.420Z,54.33
2023-02-13T01:16:34.621Z,52.33
2023-02-13T01:17:39.566Z,58.08
2023-02-13T01:18:41.785Z,59.45
2023-02-13T01:19:44.056Z,62.10
2023-02-13T01:21:00.003Z,56.85
2023-02-13T01:22:02.330Z,56.80
2023-02-13T01:23:05.703Z,67.10
2023-02-13T01:24:08.062Z,63.15
2023-02-13T01:25:11.704Z,64.78
2023-02-13T01:26:18.779Z,56.10
2023-02-13T01:27:21.088Z,63.10
2023-02-13T01:28:23.322Z,61.85
2023-02-13T01:29:25.632Z,66.10
2023-02-13T01:30:27.846Z,64.07
2023-02-13T01:31:31.180Z,70.07
2023-02-13T01:32:33.433Z,65.35
2023-02-13T01:33:36.083Z,64.45
2023-02-13T01:34:38.300Z,57.40
2023-02-13T01:35:40.564Z,71.28
2023-02-13T01:36:45.305Z,67.53
2023-02-13T01:37:47.578Z,71.70
2023-02-13T01:38:54.238Z,71.15
2023-02-13T01:39:56.693Z,74.78
2023-02-13T01:40:59.232Z,67.07
2023-02-13T01:42:01.921Z,71.22
2023-02-13T01:43:08.959Z,74.07
2023-02-13T01:44:48.629Z,79.32
2023-02-13T01:45:56.242Z,83.10
2023-02-13T01:46:58.480Z,81.80
2023-02-13T01:48:05.955Z,81.05
2023-02-13T01:49:15.068Z,87.25
2023-02-13T01:50:33.828Z,80.45
2023-02-13T01:51:36.824Z,78.50
2023-02-13T01:53:04.150Z,90.38
2023-02-13T01:54:12.500Z,95.70
2023-02-13T01:55:16.020Z,97.10
2023-02-13T01:56:25.211Z,97.15
2023-02-13T01:57:32.778Z,107.82
2023-02-13T01:58:39.013Z,94.25
2023-02-13T02:02:07.986Z,109.60
2023-02-13T02:03:19.075Z,96.93
2023-02-13T02:04:33.598Z,108.60
2023-02-13T02:05:39.335Z,105.10
2023-02-13T02:06:46.613Z,101.80
2023-02-13T02:07:59.787Z,78.25
2023-02-13T02:09:10.385Z,96.50
2023-02-13T02:10:17.011Z,112.28
2023-02-13T02:12:04.051Z,112.72
2023-02-13T02:13:20.562Z,118.55
2023-02-13T02:14:22.989Z,124.28
2023-02-13T02:15:25.360Z,107.97
2023-02-13T02:16:29.226Z,153.60
2023-02-13T02:17:31.610Z,117.72
2023-02-13T02:18:34.707Z,118.53
2023-02-13T02:19:49.257Z,86.57
2023-02-13T02:21:29.448Z,99.53
2023-02-13T02:23:04.064Z,123.43
2023-02-13T02:24:26.222Z,114.95
2023-02-13T02:25:31.775Z,99.78
2023-02-13T02:26:57.562Z,138.45
2023-02-13T02:28:17.964Z,127.28
2023-02-13T02:29:53.071Z,122.63
2023-02-13T02:31:26.291Z,110.18
2023-02-13T02:33:00.703Z,99.18
2023-02-13T02:34:38.955Z,110.05
2023-02-13T02:36:01.796Z,115.50
2023-02-13T02:37:20.933Z,155.07
2023-02-13T02:38:44.718Z,115.18
2023-02-13T02:40:09.893Z,186.90
2023-02-13T02:41:48.280Z,106.50
2023-02-13T02:42:59.492Z,121.40
2023-02-13T02:44:27.608Z,122.50
2023-02-13T02:46:07.141Z,111.05
2023-02-13T02:47:45.241Z,116.55
2023-02-13T02:49:23.543Z,90.95
2023-02-13T02:50:40.164Z,119.57
2023-02-13T02:52:13.648Z,122.50
2023-02-13T02:54:48.002Z,126.93
2023-02-13T02:56:18.839Z,134.45
2023-02-13T02:57:49.842Z,123.63
2023-02-13T02:59:39.056Z,140.00
2023-02-13T03:01:01.385Z,114.35
2023-02-13T03:02:23.400Z,145.73
2023-02-13T03:03:45.618Z,150.20
2023-02-13T03:05:11.567Z,120.50
2023-02-13T03:06:29.919Z,137.65
2023-02-13T03:07:32.835Z,128.60
2023-02-13T03:08:53.917Z,140.75
2023-02-13T03:10:18.329Z,90.95
2023-02-13T03:11:40.332Z,57.97
2023-02-13T03:13:07.385Z,89.15
2023-02-13T03:14:13.250Z,123.32
2023-02-13T03:15:15.561Z,130.55
2023-02-13T03:16:41.184Z,105.18
2023-02-13T03:18:02.301Z,142.93
2023-02-13T03:19:23.379Z,145.20
2023-02-13T03:20:58.459Z,149.63
2023-02-13T03:22:18.851Z,161.85
2023-02-13T03:23:33.552Z,164.27
2023-02-13T03:25:03.207Z,155.55
2023-02-13T03:26:17.360Z,135.10
2023-02-13T03:27:53.144Z,171.90
2023-02-13T03:29:25.148Z,218.30
2023-02-13T03:30:39.085Z,157.25
2023-02-13T03:32:01.430Z,167.05
2023-02-13T03:33:21.630Z,223.82
2023-02-13T03:34:47.875Z,218.95
2023-02-13T03:36:28.532Z,280.92
2023-02-13T03:37:55.368Z,180.93
2023-02-13T03:39:07.729Z,181.13
2023-02-13T03:40:17.192Z,267.35
2023-02-13T03:41:40.051Z,273.40
2023-02-13T03:42:58.421Z,195.90
2023-02-13T03:44:14.348Z,259.27
2023-02-13T03:45:41.485Z,275.67
2023-02-13T03:46:49.705Z,328.67
2023-02-13T03:47:56.890Z,335.77
2023-02-13T03:49:21.117Z,297.48
2023-02-13T03:50:25.736Z,265.02
2023-02-13T03:51:39.812Z,208.98
2023-02-13T03:52:56.680Z,250.13
2023-02-13T03:54:05.351Z,238.27
2023-02-13T03:55:28.832Z,207.07
2023-02-13T03:56:52.989Z,211.70
2023-02-13T03:58:20.877Z,318.75
2023-02-13T03:59:28.792Z,192.70
2023-02-13T04:00:38.369Z,257.98
2023-02-13T04:01:43.724Z,220.85
2023-02-13T04:03:25.519Z,249.35
2023-02-13T04:04:55.314Z,236.02
2023-02-13T04:06:06.115Z,340.75
2023-02-13T04:07:12.235Z,322.02
2023-02-13T04:08:14.486Z,298.42
2023-02-13T04:09:17.201Z,373.98
2023-02-13T04:10:20.104Z,341.23
2023-02-13T04:11:33.130Z,322.98
2023-02-13T04:13:15.919Z,378.10
2023-02-13T04:14:26.126Z,415.48
2023-02-13T04:15:34.790Z,451.35
2023-02-13T04:16:45.582Z,462.27
2023-02-13T04:17:56.623Z,444.92
2023-02-13T04:19:00.881Z,456.40
2023-02-13T04:20:03.777Z,422.95
2023-02-13T04:21:07.755Z,324.08
2023-02-13T04:22:12.363Z,436.65
2023-02-13T04:23:15.836Z,458.42
2023-02-13T04:24:18.035Z,419.67
2023-02-13T04:25:21.145Z,357.85
2023-02-13T04:26:23.671Z,465.73
2023-02-13T04:27:28.505Z,286.30
2023-02-13T04:28:30.834Z,236.70
2023-02-13T04:29:33.149Z,283.08
2023-02-13T04:30:35.438Z,282.67
2023-02-13T04:31:37.851Z,343.77
2023-02-13T04:32:40.158Z,296.83
2023-02-13T04:33:42.334Z,278.67
2023-02-13T04:34:44.554Z,275.42
2023-02-13T04:35:46.795Z,297.77
2023-02-13T04:36:49.077Z,326.52
2023-02-13T04:37:51.319Z,422.55
2023-02-13T04:38:53.642Z,435.25
2023-02-13T04:39:55.825Z,529.78
2023-02-13T04:40:58.383Z,537.28
2023-02-13T04:42:00.971Z,573.50
2023-02-13T04:43:03.268Z,616.55
2023-02-13T04:44:05.735Z,717.33
2023-02-13T04:45:08.390Z,781.53
2023-02-13T04:46:10.752Z,761.28
2023-02-13T04:47:12.978Z,720.17
2023-02-13T04:48:15.254Z,666.30
2023-02-13T04:49:17.497Z,486.92
2023-02-13T04:50:20.487Z,540.35
2023-02-13T04:51:22.790Z,475.33
2023-02-13T04:52:25.028Z,557.63
2023-02-13T04:53:27.291Z,513.08
2023-02-13T04:54:29.485Z,668.50
2023-02-13T04:55:31.692Z,603.08
2023-02-13T04:56:34.078Z,471.92
2023-02-13T04:57:36.298Z,514.97
2023-02-13T04:58:38.572Z,538.15
2023-02-13T04:59:41.078Z,482.48
2023-02-13T05:00:43.308Z,479.15
2023-02-13T05:01:45.596Z,476.20
2023-02-13T05:02:47.881Z,435.38
2023-02-13T05:03:50.154Z,360.10
2023-02-13T05:04:52.385Z,369.25
2023-02-13T05:05:54.608Z,242.77
2023-02-13T05:06:56.830Z,311.27
2023-02-13T05:07:59.077Z,220.40
2023-02-13T05:09:01.279Z,283.20
2023-02-13T05:10:03.624Z,193.95
2023-02-13T05:11:06.325Z,278.13
2023-02-13T05:12:08.513Z,205.40
2023-02-13T05:13:10.960Z,193.18
2023-02-13T05:14:13.228Z,147.70
2023-02-13T05:15:15.562Z,161.48
2023-02-13T05:16:17.813Z,135.73
2023-02-13T05:17:20.121Z,150.25
2023-02-13T05:18:22.334Z,85.72
2023-02-13T05:19:24.512Z,102.45
2023-02-13T05:20:26.817Z,232.27
2023-02-13T05:21:47.512Z,179.95
2023-02-13T05:23:11.045Z,171.27
2023-02-13T05:24:13.247Z,243.00
2023-02-13T05:25:15.909Z,288.08
2023-02-13T05:26:18.162Z,345.95
2023-02-13T05:27:20.332Z,387.58
2023-02-13T05:28:40.956Z,417.27
2023-02-13T05:29:43.226Z,385.15
2023-02-13T05:30:45.469Z,489.08
2023-02-13T05:31:49.722Z,431.75
2023-02-13T05:32:52.270Z,397.98
2023-02-13T05:33:54.480Z,400.58
2023-02-13T05:34:56.682Z,322.45
2023-02-13T05:35:58.835Z,325.02
2023-02-13T05:37:01.143Z,294.65
2023-02-13T05:38:03.471Z,258.08
2023-02-13T05:39:06.274Z,287.23
2023-02-13T05:40:09.515Z,283.48
2023-02-13T05:41:13.495Z,274.27
2023-02-13T05:42:15.747Z,374.90
2023-02-13T05:43:19.165Z,325.52
2023-02-13T05:44:21.342Z,227.25
2023-02-13T05:45:23.716Z,220.18
2023-02-13T05:46:26.005Z,243.25
2023-02-13T05:47:28.219Z,201.50
2023-02-13T05:48:30.423Z,236.52
2023-02-13T05:49:32.636Z,199.70
2023-02-13T05:50:34.860Z,169.43
2023-02-13T05:51:37.128Z,157.93
2023-02-13T05:52:39.353Z,137.45
2023-02-13T05:53:41.523Z,168.57
2023-02-13T05:54:43.956Z,72.53
2023-02-13T05:55:46.516Z,85.28
2023-02-13T05:56:48.839Z,63.38
2023-02-13T05:57:57.391Z,72.43
2023-02-13T05:58:59.652Z,65.05
2023-02-13T06:00:02.244Z,47.50
2023-02-13T06:01:07.981Z,68.13
2023-02-13T06:02:10.355Z,61.92
2023-02-13T06:03:12.717Z,62.13
2023-02-13T06:04:15.041Z,48.78
2023-02-13T06:05:17.415Z,55.13
2023-02-13T06:06:20.526Z,51.75
2023-02-13T06:07:23.203Z,50.97
2023-02-13T06:08:26.504Z,54.67
2023-02-13T06:09:28.714Z,45.20
2023-02-13T06:10:30.899Z,59.38
2023-02-13T06:11:33.116Z,62.85
2023-02-13T06:12:35.558Z,61.33
2023-02-13T06:13:40.566Z,58.05
2023-02-13T06:14:42.812Z,66.35
2023-02-13T06:15:45.865Z,64.25
2023-02-13T06:16:48.099Z,62.40
2023-02-13T06:17:50.281Z,74.68
2023-02-13T06:18:52.509Z,79.22
2023-02-13T06:19:55.028Z,78.93
2023-02-13T06:20:57.510Z,64.63
2023-02-13T06:21:59.903Z,89.03
2023-02-13T06:23:02.088Z,85.78
2023-02-13T06:24:05.869Z,75.13
2023-02-13T06:25:08.041Z,81.50
2023-02-13T06:26:10.298Z,74.65
2023-02-13T06:27:12.469Z,85.60
2023-02-13T06:28:14.683Z,82.93
2023-02-13T06:29:16.977Z,80.13
2023-02-13T06:30:19.765Z,88.85
2023-02-13T06:31:22.091Z,104.32
2023-02-13T06:32:24.454Z,86.22
2023-02-13T06:33:26.850Z,93.68
2023-02-13T06:34:29.088Z,102.95
2023-02-13T06:35:31.318Z,109.38
2023-02-13T06:36:33.693Z,94.97
2023-02-13T06:37:35.927Z,129.43
2023-02-13T06:38:38.139Z,139.43
2023-02-13T06:39:40.469Z,163.93
2023-02-13T06:40:43.042Z,177.25
2023-02-13T06:41:45.248Z,165.23
2023-02-13T06:42:47.537Z,132.98
2023-02-13T06:43:49.765Z,140.23
2023-02-13T06:44:52.078Z,139.35
2023-02-13T06:45:54.306Z,176.98
2023-02-13T06:46:56.589Z,191.85
2023-02-13T06:47:58.831Z,256.67
2023-02-13T06:49:01.008Z,175.13
2023-02-13T06:50:03.249Z,218.88
2023-02-13T06:51:05.786Z,176.95
2023-02-13T06:52:08.010Z,184.48
2023-02-13T06:53:10.387Z,278.35
2023-02-13T06:54:12.567Z,279.77
2023-02-13T06:55:15.300Z,266.02
2023-02-13T06:56:17.625Z,245.68
2023-02-13T06:57:19.822Z,426.48
2023-02-13T06:58:23.560Z,512.15
2023-02-13T06:59:25.778Z,474.95
2023-02-13T07:00:28.401Z,449.45
2023-02-13T07:01:30.645Z,462.98
2023-02-13T07:02:33.256Z,524.65
2023-02-13T07:03:35.491Z,446.27
2023-02-13T07:04:37.778Z,496.63
2023-02-13T07:05:44.115Z,503.70
2023-02-13T07:06:46.320Z,485.55
2023-02-13T07:07:48.518Z,452.40
2023-02-13T07:08:55.156Z,380.90
2023-02-13T07:09:57.408Z,364.35
2023-02-13T07:10:59.855Z,197.40
2023-02-13T07:12:05.662Z,282.77
2023-02-13T07:13:09.363Z,330.42
2023-02-13T07:14:11.578Z,267.02
2023-02-13T07:15:13.816Z,226.05
2023-02-13T07:16:16.214Z,145.38
2023-02-13T07:17:18.459Z,131.88
2023-02-13T07:18:20.700Z,122.38
2023-02-13T07:19:22.954Z,128.82
2023-02-13T07:20:26.329Z,135.23
2023-02-13T07:21:28.547Z,144.23
2023-02-13T07:22:32.812Z,161.25
2023-02-13T07:23:35.032Z,134.32
2023-02-13T07:24:38.532Z,134.73
2023-02-13T07:25:40.693Z,124.80
2023-02-13T07:26:42.945Z,118.15
2023-02-13T07:27:45.378Z,109.90
2023-02-13T07:28:47.668Z,125.65
2023-02-13T07:29:50.042Z,134.20
2023-02-13T07:30:52.421Z,151.02
2023-02-13T07:31:58.683Z,140.80
2023-02-13T07:33:02.568Z,208.40
2023-02-13T07:34:04.798Z,238.93
2023-02-13T07:35:07.063Z,272.42
2023-02-13T07:36:09.377Z,232.75
2023-02-13T07:37:11.651Z,176.93
2023-02-13T07:38:13.925Z,142.25
2023-02-13T07:39:16.313Z,164.45
2023-02-13T07:40:18.554Z,153.05
2023-02-13T07:41:21.016Z,123.35
2023-02-13T07:42:23.477Z,100.18
2023-02-13T07:43:25.823Z,64.65
2023-02-13T07:44:28.052Z,98.28
2023-02-13T07:45:30.482Z,95.47
2023-02-13T07:46:33.220Z,92.30
2023-02-13T07:47:35.482Z,86.20
2023-02-13T07:48:37.699Z,68.13
2023-02-13T07:49:40.026Z,69.80
2023-02-13T07:50:42.259Z,68.60
2023-02-13T07:51:44.505Z,64.50
2023-02-13T07:52:53.801Z,64.80
2023-02-13T07:53:56.677Z,66.78
2023-02-13T07:55:00.109Z,58.97
2023-02-13T07:56:09.026Z,60.97
2023-02-13T07:57:11.224Z,58.13
2023-02-13T07:58:13.390Z,58.35
2023-02-13T07:59:15.745Z,56.22
2023-02-13T08:00:18.893Z,56.38
2023-02-13T08:01:21.172Z,50.05
2023-02-13T08:02:23.420Z,54.10
2023-02-13T08:03:25.615Z,47.88
2023-02-13T08:04:27.830Z,51.63
2023-02-13T08:05:32.187Z,50.80
2023-02-13T08:06:34.434Z,55.20
2023-02-13T08:07:37.018Z,42.47
2023-02-13T08:08:39.295Z,48.35
2023-02-13T08:10:00.454Z,50.75
2023-02-13T08:11:24.942Z,43.05
2023-02-13T08:12:27.204Z,39.60
2023-02-13T08:13:29.512Z,44.38
2023-02-13T08:14:31.800Z,38.08
2023-02-13T08:15:34.075Z,43.50
2023-02-13T08:16:36.427Z,42.78
2023-02-13T08:17:38.707Z,44.15
2023-02-13T08:18:40.924Z,39.03
2023-02-13T08:19:43.130Z,41.40
2023-02-13T08:20:45.344Z,34.45
2023-02-13T08:21:47.696Z,35.05
2023-02-13T08:22:50.064Z,37.60
2023-02-13T08:23:52.330Z,34.92
2023-02-13T08:24:54.564Z,36.50
2023-02-13T08:26:01.250Z,35.88
2023-02-13T08:27:03.847Z,34.35
2023-02-13T08:28:06.125Z,35.05
2023-02-13T08:29:08.477Z,34.28
2023-02-13T08:30:11.443Z,35.58
2023-02-13T08:31:13.782Z,35.50
2023-02-13T08:32:16.504Z,30.15
2023-02-13T08:33:18.822Z,31.25
2023-02-13T08:34:21.066Z,32.15
2023-02-13T08:35:26.882Z,31.15
2023-02-13T08:36:29.488Z,29.20
2023-02-13T08:37:31.761Z,29.63
2023-02-13T08:38:34.184Z,28.42
2023-02-13T08:39:36.366Z,32.45
2023-02-13T08:40:38.563Z,27.27
2023-02-13T08:41:40.999Z,29.15
2023-02-13T08:42:43.569Z,28.40
2023-02-13T08:43:45.839Z,27.65
2023-02-13T08:44:48.096Z,29.92
2023-02-13T08:45:50.432Z,30.50
2023-02-13T08:46:52.786Z,28.58
2023-02-13T08:47:58.886Z,29.45
2023-02-13T08:49:01.105Z,30.17
2023-02-13T08:50:04.188Z,26.83
2023-02-13T08:51:13.751Z,30.38
2023-02-13T08:52:15.962Z,30.67
2023-02-13T08:53:18.195Z,30.83
2023-02-13T08:54:20.493Z,26.95
2023-02-13T08:55:22.759Z,29.25
2023-02-13T08:56:25.060Z,30.42
2023-02-13T08:57:27.336Z,29.52
2023-02-13T08:58:29.686Z,28.20
2023-02-13T08:59:31.860Z,31.13
2023-02-13T09:00:34.080Z,31.10
2023-02-13T09:01:36.426Z,30.88
2023-02-13T09:02:38.946Z,26.23
2023-02-13T09:03:41.283Z,29.13
2023-02-13T09:04:43.508Z,28.65
2023-02-13T09:05:46.101Z,29.42
2023-02-13T09:06:48.381Z,25.25
2023-02-13T09:07:50.583Z,29.80
2023-02-13T09:08:53.140Z,29.95
2023-02-13T09:09:55.353Z,30.88
2023-02-13T09:11:01.216Z,27.48
2023-02-13T09:12:03.433Z,28.35
2023-02-13T09:13:05.962Z,24.98
2023-02-13T09:14:08.268Z,27.25
2023-02-13T09:15:10.799Z,25.92
2023-02-13T09:16:13.014Z,24.20
2023-02-13T09:17:18.320Z,28.02
2023-02-13T09:18:20.636Z,24.08
2023-02-13T09:19:22.883Z,25.17
2023-02-13T09:20:25.143Z,25.00
2023-02-13T09:21:27.349Z,23.67
2023-02-13T09:22:29.562Z,24.13
2023-02-13T09:23:34.103Z,24.77
2023-02-13T09:24:36.678Z,24.30
2023-02-13T09:25:39.092Z,24.58
2023-02-13T09:26:41.390Z,28.38
2023-02-13T09:27:43.673Z,23.45
2023-02-13T09:28:46.109Z,23.08
2023-02-13T09:29:48.999Z,21.50
2023-02-13T09:30:51.303Z,21.20
2023-02-13T09:31:53.741Z,22.05
2023-02-13T09:32:56.201Z,21.45
2023-02-13T09:33:58.392Z,20.00
2023-02-13T09:35:00.658Z,19.85
2023-02-13T09:36:13.719Z,20.65
2023-02-13T09:37:15.932Z,22.33
2023-02-13T09:38:18.552Z,21.23
2023-02-13T09:39:21.278Z,21.05
2023-02-13T09:40:35.360Z,21.60
2023-02-13T09:41:45.090Z,19.77
2023-02-13T09:42:49.663Z,21.40
2023-02-13T09:43:59.123Z,21.27
2023-02-13T09:45:04.964Z,18.35
2023-02-13T09:46:20.115Z,22.00
2023-02-13T09:47:42.582Z,21.55
2023-02-13T09:48:48.501Z,26.77
2023-02-13T09:49:54.495Z,25.90
2023-02-13T09:50:58.159Z,24.25
2023-02-13T09:52:01.515Z,25.45
2023-02-13T09:53:04.350Z,21.13
2023-02-13T09:54:08.000Z,22.45
2023-02-13T09:55:16.451Z,20.63
2023-02-13T09:56:33.707Z,19.42
2023-02-13T09:57:46.123Z,19.52
2023-02-13T10:00:00.147Z,20.75
2023-02-13T10:01:05.472Z,20.65
2023-02-13T10:02:37.052Z,18.67
2023-02-13T10:03:53.343Z,19.58
2023-02-13T10:05:30.657Z,21.25
2023-02-13T10:06:49.784Z,20.83
2023-02-13T10:08:21.998Z,20.50
2023-02-13T10:09:30.259Z,18.95
2023-02-13T10:10:51.487Z,21.42
2023-02-13T10:12:13.145Z,18.38
2023-02-13T10:13:47.961Z,20.20
2023-02-13T10:15:11.366Z,21.40
2023-02-13T10:16:23.943Z,18.98
2023-02-13T10:17:40.831Z,20.15
2023-02-13T10:19:08.963Z,19.88
2023-02-13T10:20:40.111Z,20.60
2023-02-13T10:21:53.463Z,21.52
2023-02-13T10:23:27.297Z,21.83
2023-02-13T10:24:49.759Z,20.42
2023-02-13T10:26:00.891Z,19.27
2023-02-13T10:27:19.155Z,19.17
2023-02-13T10:28:30.909Z,17.20
2023-02-13T10:30:05.203Z,16.55
2023-02-13T10:31:15.369Z,20.05
2023-02-13T10:32:22.297Z,17.50
2023-02-13T10:33:52.128Z,19.00
2023-02-13T10:34:58.845Z,17.65
2023-02-13T10:36:10.076Z,19.90
2023-02-13T10:37:18.644Z,17.65
2023-02-13T10:38:23.069Z,19.52
2023-02-13T10:39:30.554Z,19.48
2023-02-13T10:40:40.372Z,21.90
2023-02-13T10:41:57.925Z,18.17
2023-02-13T10:43:10.582Z,18.63
2023-02-13T10:44:28.271Z,20.33
2023-02-13T10:45:43.875Z,19.55
2023-02-13T10:47:08.615Z,19.73
2023-02-13T10:48:30.890Z,17.92
2023-02-13T10:49:51.443Z,17.73
2023-02-13T10:51:01.779Z,19.02
2023-02-13T10:52:30.519Z,20.48
2023-02-13T10:53:43.753Z,21.48
2023-02-13T10:55:03.343Z,20.20
2023-02-13T10:56:27.127Z,26.95
2023-02-13T10:57:58.494Z,20.33
2023-02-13T10:59:22.251Z,18.27
2023-02-13T11:00:31.496Z,16.55
2023-02-13T11:01:56.347Z,20.23
2023-02-13T11:02:59.762Z,19.42
2023-02-13T11:04:12.005Z,18.58
2023-02-13T11:05:22.125Z,19.00
2023-02-13T11:06:24.461Z,19.10
2023-02-13T11:07:28.739Z,18.15
2023-02-13T11:08:43.192Z,19.73
2023-02-13T11:09:49.403Z,18.40
2023-02-13T11:10:52.472Z,18.30
2023-02-13T11:11:54.932Z,19.20
2023-02-13T11:12:57.424Z,19.17
2023-02-13T11:14:20.050Z,19.90
2023-02-13T11:15:29.566Z,21.83
2023-02-13T11:16:40.514Z,18.48
2023-02-13T11:17:44.106Z,18.55
2023-02-13T11:18:50.634Z,18.73
2023-02-13T11:19:55.558Z,18.27
2023-02-13T11:21:08.781Z,20.35
2023-02-13T11:22:42.698Z,19.33
2023-02-13T11:23:53.186Z,18.13
2023-02-13T11:25:02.310Z,18.10
2023-02-13T11:26:10.170Z,18.20
2023-02-13T11:27:13.934Z,20.58
2023-02-13T11:28:20.901Z,18.90
2023-02-13T11:29:31.647Z,20.02
2023-02-13T11:30:38.442Z,19.08
2023-02-13T11:31:40.859Z,18.85
2023-02-13T11:32:57.816Z,18.10
2023-02-13T11:34:18.771Z,19.33
2023-02-13T11:35:30.615Z,19.90
2023-02-13T11:36:34.209Z,16.95
2023-02-13T11:37:36.472Z,20.15
2023-02-13T11:38:38.863Z,17.85
2023-02-13T11:39:42.615Z,18.85
2023-02-13T11:40:48.160Z,18.10
2023-02-13T11:41:53.417Z,19.10
2023-02-13T11:42:55.689Z,19.25
2023-02-13T11:44:02.391Z,18.20
2023-02-13T11:45:26.902Z,18.00
2023-02-13T11:46:31.307Z,19.00
2023-02-13T11:47:41.858Z,20.02
2023-02-13T11:48:55.890Z,18.52
2023-02-13T11:49:58.207Z,21.08
2023-02-13T11:51:00.810Z,19.50
2023-02-13T11:52:06.395Z,18.27
2023-02-13T11:53:20.604Z,20.65
2023-02-13T11:54:29.222Z,19.35
2023-02-13T11:55:35.459Z,20.25
2023-02-13T11:57:04.433Z,23.83
2023-02-13T11:58:16.190Z,20.17
2023-02-13T11:59:23.881Z,21.67
2023-02-13T12:00:32.327Z,20.15
2023-02-13T12:01:34.575Z,25.98
2023-02-13T12:02:49.879Z,23.70
2023-02-13T12:04:07.631Z,20.90
2023-02-13T12:05:24.381Z,27.38
2023-02-13T12:06:26.839Z,20.73
2023-02-13T12:07:32.241Z,20.30
2023-02-13T12:08:39.264Z,20.50
2023-02-13T12:09:43.160Z,19.80
2023-02-13T12:10:45.545Z,21.35
2023-02-13T12:11:51.401Z,30.35
2023-02-13T12:13:02.372Z,23.52
2023-02-13T12:14:05.083Z,22.10
2023-02-13T12:15:27.498Z,27.55
2023-02-13T12:16:40.065Z,20.17
2023-02-13T12:17:45.284Z,19.10
2023-02-13T12:18:52.782Z,18.58
2023-02-13T12:19:55.575Z,38.55
2023-02-13T12:21:03.233Z,23.90
2023-02-13T12:22:15.017Z,23.52
2023-02-13T12:23:41.413Z,18.08
2023-02-13T12:25:16.384Z,26.75
2023-02-13T12:26:28.736Z,25.38
2023-02-13T12:27:42.947Z,19.58
2023-02-13T12:29:12.873Z,19.67
2023-02-13T12:30:36.387Z,20.20
2023-02-13T12:31:49.841Z,20.73
2023-02-13T12:33:29.571Z,32.50
2023-02-13T12:34:43.711Z,21.13
2023-02-13T12:36:23.082Z,23.48
2023-02-13T12:37:45.030Z,18.33
2023-02-13T12:39:31.727Z,22.63
2023-02-13T12:40:54.042Z,20.38
2023-02-13T12:42:39.454Z,21.35
2023-02-13T12:44:00.203Z,22.05
2023-02-13T12:45:26.832Z,17.05
2023-02-13T12:46:42.583Z,19.17
2023-02-13T12:48:10.540Z,20.80
2023-02-13T12:49:44.807Z,18.90
2023-02-13T12:51:03.601Z,21.33
2023-02-13T12:52:22.930Z,24.90
2023-02-13T12:53:43.905Z,18.98
2023-02-13T12:55:20.967Z,20.17
2023-02-13T12:56:55.063Z,20.17
2023-02-13T12:58:36.215Z,17.83
2023-02-13T12:59:47.046Z,15.75
2023-02-13T13:01:17.590Z,21.08
2023-02-13T13:02:37.820Z,18.98
2023-02-13T13:04:17.340Z,19.60
2023-02-13T13:05:24.626Z,19.52
2023-02-13T13:06:54.260Z,18.23
2023-02-13T13:08:31.595Z,17.50
2023-02-13T13:09:45.237Z,16.33
2023-02-13T13:11:22.242Z,18.92
2023-02-13T13:12:46.891Z,17.30
2023-02-13T13:14:06.756Z,19.30
2023-02-13T13:15:56.861Z,19.85
2023-02-13T13:17:03.823Z,19.45
2023-02-13T13:18:24.470Z,19.92
2023-02-13T13:19:49.321Z,21.45
2023-02-13T13:21:19.234Z,20.73
2023-02-13T13:22:32.619Z,17.98
2023-02-13T13:23:51.920Z,17.05
2023-02-13T13:25:06.643Z,18.38
2023-02-13T13:26:34.999Z,16.77
2023-02-13T13:27:44.313Z,18.45
2023-02-13T13:28:51.647Z,16.02
2023-02-13T13:30:35.508Z,18.02
2023-02-13T13:31:38.955Z,21.05
2023-02-13T13:32:43.273Z,17.55
2023-02-13T13:33:47.942Z,17.23
2023-02-13T13:34:50.382Z,16.50
2023-02-13T13:36:04.457Z,20.38
2023-02-13T13:37:14.310Z,16.48
2023-02-13T13:38:51.756Z,19.60
2023-02-13T13:40:03.751Z,16.70
2023-02-13T13:41:15.596Z,18.38
2023-02-13T13:42:30.669Z,16.55
2023-02-13T13:44:15.144Z,17.05
2023-02-13T13:45:31.248Z,16.58
2023-02-13T13:46:53.626Z,16.27
2023-02-13T13:47:58.599Z,16.65
2023-02-13T13:49:15.801Z,17.25
2023-02-13T13:50:31.417Z,13.80
2023-02-13T13:51:33.884Z,10.63
2023-02-13T13:52:39.624Z,14.77
2023-02-13T13:54:10.723Z,16.10
2023-02-13T13:55:48.241Z,19.70
2023-02-13T13:56:53.155Z,14.82
2023-02-13T13:58:00.336Z,14.02
2023-02-13T13:59:02.552Z,13.68
2023-02-13T14:00:14.047Z,13.07
2023-02-13T14:01:26.101Z,13.82
2023-02-13T14:02:48.340Z,13.80
2023-02-13T14:04:04.222Z,13.40
2023-02-13T14:05:32.315Z,16.10
2023-02-13T14:06:43.196Z,15.15
2023-02-13T14:07:48.270Z,14.77
2023-02-13T14:08:59.836Z,16.52
2023-02-13T14:10:02.189Z,15.70
2023-02-13T14:11:04.508Z,15.80
2023-02-13T14:12:24.542Z,17.08
2023-02-13T14:13:38.920Z,16.50
2023-02-13T14:14:44.755Z,16.10
2023-02-13T14:15:52.263Z,16.17
2023-02-13T14:16:59.494Z,17.35
2023-02-13T14:18:14.989Z,14.40
2023-02-13T14:19:29.204Z,17.90
2023-02-13T14:20:36.211Z,15.80
2023-02-13T14:21:38.463Z,17.80
2023-02-13T14:22:41.278Z,16.38
2023-02-13T14:23:49.689Z,18.85
2023-02-13T14:24:55.634Z,17.58
2023-02-13T14:26:10.687Z,17.50
2023-02-13T14:27:25.278Z,17.60
2023-02-13T14:28:27.726Z,18.52
2023-02-13T14:29:32.940Z,18.85
2023-02-13T14:30:40.283Z,18.73
2023-02-13T14:31:52.400Z,16.83
2023-02-13T14:32:55.289Z,18.63
2023-02-13T14:34:04.019Z,20.05
2023-02-13T14:35:22.660Z,14.85
2023-02-13T14:36:33.054Z,14.77
2023-02-13T14:37:39.569Z,17.05
2023-02-13T14:38:42.162Z,19.42
2023-02-13T14:40:33.459Z,16.65
2023-02-13T14:41:43.485Z,15.65
2023-02-13T14:42:56.391Z,15.95
2023-02-13T14:43:58.920Z,16.75
2023-02-13T14:45:04.771Z,15.65
2023-02-13T14:46:24.657Z,17.23